createdAt,value
2022-08-19T00:02:17.513Z,62.62
2022-08-19T00:05:04.573Z,62.35
2022-08-19T00:07:50.902Z,62.66
2022-08-19T00:10:36.381Z,62.48
2022-08-19T00:13:21.659Z,62.20
2022-08-19T00:16:08.150Z,62.44
2022-08-19T00:18:54.552Z,62.48
2022-08-19T00:21:40.580Z,62.03
2022-08-19T00:24:26.563Z,62.28
2022-08-19T00:27:26.221Z,62.45
2022-08-19T00:30:13.049Z,62.10
2022-08-19T00:32:59.677Z,62.02
2022-08-19T00:35:44.983Z,62.26
2022-08-19T00:38:37.480Z,61.94
2022-08-19T00:41:25.317Z,62.29
2022-08-19T00:44:14.755Z,62.28
2022-08-19T00:47:01.075Z,61.92
2022-08-19T00:49:54.569Z,62.13
2022-08-19T00:52:46.452Z,62.30
2022-08-19T00:55:33.578Z,61.92
2022-08-19T00:58:22.296Z,62.04
2022-08-19T01:01:08.722Z,62.00
2022-08-19T01:03:56.808Z,62.06
2022-08-19T01:06:43.732Z,62.23
2022-08-19T01:09:31.940Z,62.07
2022-08-19T01:12:18.633Z,61.88
2022-08-19T01:15:05.169Z,61.98
2022-08-19T01:17:52.560Z,61.91
2022-08-19T01:20:38.486Z,62.40
2022-08-19T01:23:43.372Z,62.24
2022-08-19T01:26:29.458Z,62.17
2022-08-19T01:29:16.854Z,62.08
2022-08-19T01:32:02.595Z,62.05
2022-08-19T01:34:48.221Z,61.97
2022-08-19T01:37:52.151Z,62.36
2022-08-19T01:40:41.362Z,62.02
2022-08-19T01:43:27.543Z,62.34
2022-08-19T01:46:12.891Z,62.10
2022-08-19T01:48:58.128Z,62.13
2022-08-19T01:51:43.435Z,62.34
2022-08-19T01:54:29.388Z,62.18
2022-08-19T01:57:15.758Z,62.31
2022-08-19T02:00:01.660Z,62.61
2022-08-19T02:02:56.683Z,62.74
2022-08-19T02:05:43.075Z,62.71
2022-08-19T02:08:28.569Z,62.73
2022-08-19T02:11:32.657Z,62.58
2022-08-19T02:14:17.770Z,62.86
2022-08-19T02:17:04.212Z,62.74
2022-08-19T02:19:49.972Z,62.52
2022-08-19T02:22:36.290Z,62.93
2022-08-19T02:25:21.915Z,63.10
2022-08-19T02:28:08.256Z,62.67
2022-08-19T02:30:53.792Z,62.76
2022-08-19T02:33:40.087Z,63.07
2022-08-19T02:36:26.518Z,62.62
2022-08-19T02:39:11.967Z,63.07
2022-08-19T02:41:57.289Z,62.90
2022-08-19T02:44:42.407Z,62.48
2022-08-19T02:47:27.719Z,62.66
2022-08-19T02:50:13.811Z,63.01
2022-08-19T02:52:59.454Z,63.11
2022-08-19T02:55:47.407Z,63.33
2022-08-19T02:58:32.857Z,63.49
2022-08-19T03:01:28.027Z,63.49
2022-08-19T03:04:16.553Z,63.45
2022-08-19T03:07:10.840Z,63.81
2022-08-19T03:09:56.759Z,63.77
2022-08-19T03:12:42.207Z,63.83
2022-08-19T03:15:27.542Z,64.21
2022-08-19T03:18:13.494Z,64.85
2022-08-19T03:20:58.966Z,64.78
2022-08-19T03:23:44.659Z,64.86
2022-08-19T03:26:30.810Z,65.62
2022-08-19T03:29:22.234Z,65.55
2022-08-19T03:32:32.490Z,65.65
2022-08-19T03:35:18.729Z,65.77
2022-08-19T03:38:05.721Z,65.72
2022-08-19T03:40:51.195Z,65.22
2022-08-19T03:43:41.476Z,65.30
2022-08-19T03:46:29.172Z,65.60
2022-08-19T03:49:15.120Z,65.43
2022-08-19T03:52:03.564Z,65.57
2022-08-19T03:54:49.077Z,65.48
2022-08-19T03:57:35.548Z,65.14
2022-08-19T04:00:21.242Z,65.21
2022-08-19T04:03:06.571Z,65.06
2022-08-19T04:05:52.042Z,65.47
2022-08-19T04:08:37.665Z,65.41
2022-08-19T04:11:43.906Z,65.22
2022-08-19T04:14:31.516Z,65.29
2022-08-19T04:17:17.374Z,65.76
2022-08-19T04:20:07.102Z,64.89
2022-08-19T04:22:52.500Z,66.76
2022-08-19T04:25:43.496Z,65.12
2022-08-19T04:28:29.885Z,65.37
2022-08-19T04:31:30.986Z,65.60
2022-08-19T04:34:18.788Z,65.85
2022-08-19T04:37:12.752Z,65.69
2022-08-19T04:40:16.798Z,66.25
2022-08-19T04:43:02.409Z,66.80
2022-08-19T04:45:47.975Z,66.69
2022-08-19T04:48:35.242Z,66.29
2022-08-19T04:51:21.635Z,66.68
2022-08-19T04:54:06.911Z,66.89
2022-08-19T04:56:55.423Z,66.26
2022-08-19T04:59:40.684Z,66.69
2022-08-19T05:02:26.395Z,66.83
2022-08-19T05:05:12.082Z,66.51
2022-08-19T05:07:57.780Z,66.71
2022-08-19T05:10:43.355Z,66.33
2022-08-19T05:13:28.661Z,66.25
2022-08-19T05:16:14.507Z,66.29
2022-08-19T05:19:18.586Z,66.28
2022-08-19T05:22:22.418Z,66.10
2022-08-19T05:25:13.020Z,66.22
2022-08-19T05:27:59.379Z,66.33
2022-08-19T05:30:47.471Z,66.29
2022-08-19T05:33:33.469Z,66.50
2022-08-19T05:36:20.978Z,65.99
2022-08-19T05:39:12.981Z,66.35
2022-08-19T05:42:01.434Z,66.09
2022-08-19T05:44:48.087Z,66.33
2022-08-19T05:47:33.564Z,66.33
2022-08-19T05:50:19.103Z,65.56
2022-08-19T05:53:05.167Z,65.21
2022-08-19T05:55:50.851Z,65.51
2022-08-19T05:58:37.424Z,64.96
2022-08-19T06:01:22.667Z,64.90
2022-08-19T06:04:08.384Z,64.95
2022-08-19T06:06:55.095Z,64.80
2022-08-19T06:09:43.677Z,64.83
2022-08-19T06:12:41.476Z,64.84
2022-08-19T06:15:29.108Z,65.19
2022-08-19T06:18:15.382Z,65.20
2022-08-19T06:21:05.296Z,65.29
2022-08-19T06:23:52.623Z,65.66
2022-08-19T06:26:41.840Z,65.17
2022-08-19T06:29:28.923Z,65.67
2022-08-19T06:32:17.344Z,65.35
2022-08-19T06:35:03.120Z,65.47
2022-08-19T06:37:48.224Z,65.68
2022-08-19T06:40:33.736Z,65.41
2022-08-19T06:43:18.769Z,65.13
2022-08-19T06:46:04.819Z,65.44
2022-08-19T06:48:54.433Z,65.22
2022-08-19T06:51:42.428Z,65.93
2022-08-19T06:54:30.887Z,66.02
2022-08-19T06:57:16.966Z,65.66
2022-08-19T07:00:03.624Z,65.69
2022-08-19T07:02:53.395Z,65.83
2022-08-19T07:05:45.698Z,65.58
2022-08-19T07:08:31.984Z,65.74
2022-08-19T07:11:19.997Z,65.89
2022-08-19T07:14:07.624Z,65.81
2022-08-19T07:17:08.122Z,66.20
2022-08-19T07:19:54.517Z,66.07
2022-08-19T07:22:41.014Z,65.95
2022-08-19T07:25:32.250Z,66.04
2022-08-19T07:28:24.765Z,66.44
2022-08-19T07:31:16.984Z,66.07
2022-08-19T07:34:11.570Z,66.38
2022-08-19T07:36:57.645Z,65.91
2022-08-19T07:39:43.044Z,65.66
2022-08-19T07:42:30.594Z,65.97
2022-08-19T07:45:17.014Z,66.29
2022-08-19T07:48:02.803Z,66.21
2022-08-19T07:50:49.414Z,66.24
2022-08-19T07:53:39.564Z,66.58
2022-08-19T07:56:25.396Z,66.19
2022-08-19T07:59:11.179Z,66.59
2022-08-19T08:01:58.059Z,66.56
2022-08-19T08:05:02.230Z,66.72
2022-08-19T08:08:07.153Z,67.02
2022-08-19T08:10:54.634Z,66.93
2022-08-19T08:13:42.741Z,67.03
2022-08-19T08:16:32.164Z,66.43
2022-08-19T08:19:25.923Z,66.80
2022-08-19T08:22:32.991Z,66.78
2022-08-19T08:25:23.716Z,67.18
2022-08-19T08:28:11.301Z,66.84
2022-08-19T08:31:02.637Z,66.59
2022-08-19T08:33:55.111Z,66.91
2022-08-19T08:36:43.610Z,66.44
2022-08-19T08:39:29.711Z,67.04
2022-08-19T08:42:28.487Z,66.88
2022-08-19T08:45:18.065Z,66.24
2022-08-19T08:48:22.351Z,66.65
2022-08-19T08:51:15.206Z,66.68
2022-08-19T08:54:09.945Z,66.07
2022-08-19T08:56:56.034Z,65.84
2022-08-19T08:59:44.338Z,65.61
2022-08-19T09:02:29.983Z,65.78
2022-08-19T09:05:16.278Z,66.84
2022-08-19T09:08:08.014Z,66.50
2022-08-19T09:10:56.268Z,66.67
2022-08-19T09:13:58.176Z,66.95
2022-08-19T09:16:43.381Z,67.12
2022-08-19T09:19:29.500Z,68.31
2022-08-19T09:22:14.618Z,68.42
2022-08-19T09:25:15.878Z,69.20
2022-08-19T09:28:05.634Z,69.35
2022-08-19T09:30:52.990Z,69.49
2022-08-19T09:33:39.217Z,69.45
2022-08-19T09:36:34.702Z,69.91
2022-08-19T09:39:20.537Z,69.83
2022-08-19T09:42:16.435Z,69.17
2022-08-19T09:45:17.228Z,69.08
2022-08-19T09:48:03.792Z,69.02
2022-08-19T09:50:51.957Z,69.60
2022-08-19T09:53:38.945Z,69.31
2022-08-19T09:56:25.626Z,69.75
2022-08-19T09:59:12.999Z,69.32
2022-08-19T10:02:03.868Z,69.40
2022-08-19T10:05:14.670Z,69.61
2022-08-19T10:08:13.207Z,69.74
2022-08-19T10:10:59.970Z,70.07
2022-08-19T10:14:06.823Z,69.87
2022-08-19T10:16:52.825Z,69.94
2022-08-19T10:19:39.049Z,69.64
2022-08-19T10:22:25.761Z,70.15
2022-08-19T10:25:12.142Z,70.12
2022-08-19T10:27:57.619Z,70.02
2022-08-19T10:30:43.085Z,70.10
2022-08-19T10:33:38.857Z,70.42
2022-08-19T10:36:37.031Z,70.23
2022-08-19T10:39:43.095Z,69.72
2022-08-19T10:42:29.190Z,69.80
2022-08-19T10:45:14.481Z,69.76
2022-08-19T10:48:00.667Z,69.83
2022-08-19T10:51:04.531Z,70.05
2022-08-19T10:53:50.721Z,69.76
2022-08-19T10:56:52.113Z,69.33
2022-08-19T10:59:37.925Z,69.74
2022-08-19T11:02:23.485Z,69.25
2022-08-19T11:05:12.784Z,69.61
2022-08-19T11:07:59.435Z,69.63
2022-08-19T11:10:50.318Z,69.41
2022-08-19T11:13:39.835Z,70.06
2022-08-19T11:16:27.658Z,70.20
2022-08-19T11:19:15.048Z,71.00
2022-08-19T11:22:04.777Z,70.28
2022-08-19T11:24:50.248Z,70.49
2022-08-19T11:27:40.337Z,70.21
2022-08-19T11:30:25.844Z,69.45
2022-08-19T11:33:11.880Z,69.31
2022-08-19T11:36:02.157Z,69.76
2022-08-19T11:38:50.896Z,70.16
2022-08-19T11:41:37.262Z,69.26
2022-08-19T11:44:23.110Z,69.48
2022-08-19T11:47:08.778Z,69.16
2022-08-19T11:49:54.838Z,69.84
2022-08-19T11:52:40.247Z,69.56
2022-08-19T11:55:25.591Z,69.90
2022-08-19T11:58:18.971Z,69.35
2022-08-19T12:01:10.430Z,69.21
2022-08-19T12:03:57.666Z,69.25
2022-08-19T12:06:43.288Z,69.28
2022-08-19T12:09:30.965Z,69.01
2022-08-19T12:12:16.878Z,68.91
2022-08-19T12:15:03.099Z,69.02
2022-08-19T12:17:48.663Z,68.75
2022-08-19T12:20:41.115Z,68.47
2022-08-19T12:23:26.264Z,68.29
2022-08-19T12:26:12.719Z,68.54
2022-08-19T12:29:00.454Z,67.82
2022-08-19T12:31:48.592Z,67.99
2022-08-19T12:34:35.036Z,67.69
2022-08-19T12:37:20.599Z,67.67
2022-08-19T12:40:07.219Z,67.99
2022-08-19T12:42:52.858Z,67.65
2022-08-19T12:45:38.727Z,67.95
2022-08-19T12:48:33.799Z,67.58
2022-08-19T12:51:22.963Z,67.63
2022-08-19T12:54:09.178Z,67.87
2022-08-19T12:56:55.052Z,67.42
2022-08-19T12:59:40.658Z,67.54
2022-08-19T13:02:26.098Z,67.94
2022-08-19T13:05:21.155Z,68.12
2022-08-19T13:08:06.906Z,67.93
2022-08-19T13:10:52.195Z,68.04
2022-08-19T13:13:37.667Z,67.70
2022-08-19T13:16:27.303Z,67.47
2022-08-19T13:19:14.625Z,67.54
2022-08-19T13:22:01.175Z,67.86
2022-08-19T13:24:47.545Z,67.99
2022-08-19T13:27:33.776Z,67.71
2022-08-19T13:30:39.191Z,67.37
2022-08-19T13:33:26.623Z,67.67
2022-08-19T13:36:12.066Z,67.22
2022-08-19T13:38:58.617Z,67.59
2022-08-19T13:41:50.907Z,67.46
2022-08-19T13:44:36.350Z,67.63
2022-08-19T13:47:21.897Z,68.28
2022-08-19T13:50:08.146Z,68.40
2022-08-19T13:52:55.200Z,67.96
2022-08-19T13:55:42.901Z,67.89
2022-08-19T13:58:28.498Z,67.97
2022-08-19T14:01:19.491Z,68.46
2022-08-19T14:04:10.011Z,68.14
2022-08-19T14:06:56.039Z,67.89
2022-08-19T14:09:42.121Z,67.91
2022-08-19T14:12:29.256Z,68.03
2022-08-19T14:15:15.641Z,67.76
2022-08-19T14:18:00.947Z,67.28
2022-08-19T14:20:46.183Z,66.92
2022-08-19T14:23:32.452Z,67.64
2022-08-19T14:26:19.662Z,67.33
2022-08-19T14:29:04.777Z,67.49
2022-08-19T14:31:50.097Z,67.11
2022-08-19T14:34:38.361Z,67.30
2022-08-19T14:37:23.748Z,67.40
2022-08-19T14:40:12.497Z,67.50
2022-08-19T14:43:05.231Z,67.30
2022-08-19T14:45:51.018Z,67.03
2022-08-19T14:48:41.445Z,67.37
2022-08-19T14:51:27.872Z,67.33
2022-08-19T14:54:14.062Z,67.14
2022-08-19T14:56:59.769Z,67.22
2022-08-19T14:59:45.344Z,67.23
2022-08-19T15:02:34.465Z,67.22
2022-08-19T15:05:20.387Z,67.34
2022-08-19T15:08:06.109Z,67.25
2022-08-19T15:10:52.890Z,67.53
2022-08-19T15:13:40.544Z,67.39
2022-08-19T15:16:27.178Z,67.05
2022-08-19T15:19:12.904Z,67.29
2022-08-19T15:21:58.516Z,66.71
2022-08-19T15:24:47.941Z,66.68
2022-08-19T15:27:34.049Z,66.55
2022-08-19T15:30:28.004Z,66.88
2022-08-19T15:33:15.424Z,66.43
2022-08-19T15:36:00.744Z,66.98
2022-08-19T15:38:47.538Z,66.63
2022-08-19T15:41:34.504Z,66.65
2022-08-19T15:44:22.759Z,66.82
2022-08-19T15:47:08.240Z,66.94
2022-08-19T15:49:55.761Z,66.94
2022-08-19T15:52:53.642Z,66.89
2022-08-19T15:55:45.077Z,67.12
2022-08-19T15:58:49.143Z,66.99
2022-08-19T16:01:40.503Z,66.96
2022-08-19T16:04:45.055Z,67.09
2022-08-19T16:07:30.407Z,67.87
2022-08-19T16:10:27.033Z,68.34
2022-08-19T16:13:13.938Z,68.62
2022-08-19T16:15:59.413Z,69.28
2022-08-19T16:18:47.274Z,68.72
2022-08-19T16:21:34.386Z,68.42
2022-08-19T16:24:23.584Z,67.84
2022-08-19T16:27:08.923Z,68.34
2022-08-19T16:29:54.613Z,69.18
2022-08-19T16:32:43.884Z,68.20
2022-08-19T16:35:29.123Z,69.20
2022-08-19T16:38:14.562Z,66.87
2022-08-19T16:41:01.509Z,66.40
2022-08-19T16:43:49.306Z,66.71
2022-08-19T16:46:34.869Z,66.92
2022-08-19T16:49:52.194Z,67.22
2022-08-19T16:52:26.978Z,67.42
2022-08-19T16:55:12.178Z,67.95
2022-08-19T16:57:57.573Z,67.57
2022-08-19T17:00:42.857Z,67.68
2022-08-19T17:03:36.289Z,68.10
2022-08-19T17:06:26.424Z,67.85
2022-08-19T17:09:12.453Z,67.54
2022-08-19T17:11:58.242Z,67.17
2022-08-19T17:14:45.998Z,67.31
2022-08-19T17:17:31.950Z,68.23
2022-08-19T17:20:17.525Z,67.79
2022-08-19T17:23:03.531Z,67.57
2022-08-19T17:25:51.198Z,67.04
2022-08-19T17:28:36.501Z,66.57
2022-08-19T17:31:24.524Z,65.97
2022-08-19T17:34:10.083Z,66.43
2022-08-19T17:36:57.159Z,66.56
2022-08-19T17:39:42.313Z,66.88
2022-08-19T17:42:27.977Z,67.26
2022-08-19T17:45:14.857Z,66.90
2022-08-19T17:48:01.183Z,67.04
2022-08-19T17:50:46.767Z,66.90
2022-08-19T17:53:33.310Z,66.84
2022-08-19T17:56:21.397Z,66.37
2022-08-19T17:59:07.875Z,66.83
2022-08-19T18:01:58.060Z,66.28
2022-08-19T18:04:46.862Z,66.66
2022-08-19T18:07:34.402Z,66.77
2022-08-19T18:10:21.378Z,66.95
2022-08-19T18:13:17.171Z,66.68
2022-08-19T18:16:07.089Z,66.76
2022-08-19T18:18:54.538Z,66.44
2022-08-19T18:21:40.929Z,66.03
2022-08-19T18:24:26.446Z,66.28
2022-08-19T18:27:11.784Z,65.78
2022-08-19T18:29:59.178Z,65.46
2022-08-19T18:32:46.913Z,65.50
2022-08-19T18:35:33.143Z,65.40
2022-08-19T18:38:39.240Z,65.45
2022-08-19T18:41:43.361Z,65.74
2022-08-19T18:44:47.296Z,65.56
2022-08-19T18:47:51.419Z,65.73
2022-08-19T18:50:41.112Z,66.01
2022-08-19T18:53:29.728Z,65.95
2022-08-19T18:56:19.606Z,65.48
2022-08-19T18:59:05.187Z,65.73
2022-08-19T19:01:56.169Z,65.91
2022-08-19T19:04:41.700Z,65.78
2022-08-19T19:07:29.676Z,65.37
2022-08-19T19:10:15.392Z,65.70
2022-08-19T19:13:01.396Z,65.17
2022-08-19T19:15:47.130Z,65.16
2022-08-19T19:18:34.800Z,65.42
2022-08-19T19:21:23.099Z,65.26
2022-08-19T19:24:09.042Z,65.77
2022-08-19T19:26:54.787Z,65.79
2022-08-19T19:29:40.992Z,66.26
2022-08-19T19:32:30.887Z,66.30
2022-08-19T19:35:16.693Z,65.81
2022-08-19T19:38:02.629Z,65.89
2022-08-19T19:40:48.173Z,65.89
2022-08-19T19:43:38.868Z,66.32
2022-08-19T19:46:27.808Z,66.45
2022-08-19T19:49:14.023Z,66.43
2022-08-19T19:51:59.679Z,66.08
2022-08-19T19:54:47.890Z,66.49
2022-08-19T19:57:33.495Z,66.04
2022-08-19T20:00:19.523Z,66.08
2022-08-19T20:03:05.640Z,66.04
2022-08-19T20:05:52.485Z,65.97
2022-08-19T20:08:59.145Z,65.86
2022-08-19T20:11:53.973Z,65.81
2022-08-19T20:14:40.033Z,65.94
2022-08-19T20:17:25.472Z,65.74
2022-08-19T20:20:14.007Z,66.10
2022-08-19T20:22:59.590Z,65.76
2022-08-19T20:25:45.068Z,66.07
2022-08-19T20:28:30.397Z,65.66
2022-08-19T20:31:16.811Z,65.89
2022-08-19T20:34:02.597Z,65.96
2022-08-19T20:36:47.852Z,65.85
2022-08-19T20:39:33.235Z,65.63
2022-08-19T20:42:18.601Z,65.80
2022-08-19T20:45:07.388Z,66.12
2022-08-19T20:48:05.620Z,66.27
2022-08-19T20:50:50.677Z,66.05
2022-08-19T20:53:36.741Z,65.99
2022-08-19T20:56:22.285Z,66.39
2022-08-19T20:59:10.517Z,66.43
2022-08-19T21:01:56.442Z,66.17
2022-08-19T21:04:44.328Z,66.48
2022-08-19T21:07:39.267Z,66.40
2022-08-19T21:10:26.183Z,66.53
2022-08-19T21:13:11.818Z,66.52
2022-08-19T21:15:57.289Z,66.56
2022-08-19T21:18:42.563Z,66.63
2022-08-19T21:21:27.925Z,66.55
2022-08-19T21:24:13.094Z,66.60
2022-08-19T21:26:58.983Z,66.49
2022-08-19T21:29:44.296Z,66.35
2022-08-19T21:32:29.579Z,66.57
2022-08-19T21:35:14.907Z,66.19
2022-08-19T21:38:00.060Z,66.14
2022-08-19T21:40:45.565Z,66.56
2022-08-19T21:43:31.411Z,66.19
2022-08-19T21:46:17.542Z,66.49
2022-08-19T21:49:03.647Z,66.22
2022-08-19T21:51:49.856Z,66.21
2022-08-19T21:54:38.046Z,66.27
2022-08-19T21:57:24.704Z,66.35
2022-08-19T22:00:21.668Z,66.19
2022-08-19T22:03:07.383Z,66.13
2022-08-19T22:05:53.440Z,66.15
2022-08-19T22:08:39.848Z,65.94
2022-08-19T22:11:26.741Z,66.10
2022-08-19T22:14:11.915Z,66.04
2022-08-19T22:16:57.558Z,65.84
2022-08-19T22:19:44.435Z,65.69
2022-08-19T22:22:32.495Z,66.12
2022-08-19T22:25:32.007Z,66.08
2022-08-19T22:28:19.131Z,66.03
2022-08-19T22:31:13.424Z,65.81
2022-08-19T22:34:00.280Z,65.89
2022-08-19T22:36:45.498Z,65.80
2022-08-19T22:39:30.674Z,65.58
2022-08-19T22:42:20.079Z,65.51
2022-08-19T22:45:08.481Z,65.77
2022-08-19T22:47:53.998Z,65.58
2022-08-19T22:50:41.720Z,65.71
2022-08-19T22:53:27.044Z,65.93
2022-08-19T22:56:15.516Z,65.78
2022-08-19T22:59:03.167Z,65.40
2022-08-19T23:01:48.905Z,65.40
2022-08-19T23:04:34.688Z,65.77
2022-08-19T23:07:23.803Z,65.64
2022-08-19T23:10:10.529Z,65.71
2022-08-19T23:12:58.752Z,65.59
2022-08-19T23:15:46.358Z,65.74
2022-08-19T23:18:33.588Z,65.91
2022-08-19T23:21:19.205Z,65.74
2022-08-19T23:24:05.227Z,65.81
2022-08-19T23:27:09.848Z,65.67
2022-08-19T23:30:13.534Z,65.80
2022-08-19T23:33:25.259Z,65.69
2022-08-19T23:36:16.214Z,65.95
2022-08-19T23:39:01.587Z,65.83
2022-08-19T23:41:47.286Z,65.55
2022-08-19T23:44:32.717Z,65.85
2022-08-19T23:47:20.845Z,65.96
2022-08-19T23:50:07.648Z,65.72
2022-08-19T23:52:56.999Z,65.75
2022-08-19T23:55:44.766Z,65.97
2022-08-19T23:58:31.893Z,65.80
